Terminal Aerodrome Forecast
Issued by NWS

Home | Current Version | Previous Version | Text Only | Print | Product List | Glossary On
Versions: 1 2 3 4 5 6 7 8 9 10 11 12
000
FTUS43 KFGF 170538
TAFDVL
TAF
KDVL 170538Z 1706/1806 28006KT P6SM FEW200
     FM171600 22009KT P6SM FEW200
     FM171900 21013KT P6SM SCT250
     FM180400 24011KT P6SM FEW150=

USA.gov is the U.S. government's official web portal to all federal, state and local government web resources and services.